sensor_id;sensor_type;location;lat;lon;timestamp;temperature;humidity
582;DHT22;277;50.074;8.436;2022-11-27T00:02:17;8.70;99.90
582;DHT22;277;50.074;8.436;2022-11-27T00:04:46;8.80;99.90
582;DHT22;277;50.074;8.436;2022-11-27T00:07:13;8.80;99.90
582;DHT22;277;50.074;8.436;2022-11-27T00:09:41;8.90;99.90
582;DHT22;277;50.074;8.436;2022-11-27T00:12:09;8.90;99.90
582;DHT22;277;50.074;8.436;2022-11-27T00:14:37;9.00;99.90
582;DHT22;277;50.074;8.436;2022-11-27T00:17:04;9.00;99.90
582;DHT22;277;50.074;8.436;2022-11-27T00:19:32;9.00;99.90
582;DHT22;277;50.074;8.436;2022-11-27T00:22:01;8.90;99.90
582;DHT22;277;50.074;8.436;2022-11-27T00:24:29;9.00;99.90
582;DHT22;277;50.074;8.436;2022-11-27T00:26:57;8.90;99.90
582;DHT22;277;50.074;8.436;2022-11-27T00:29:24;9.00;99.90
582;DHT22;277;50.074;8.436;2022-11-27T00:31:54;9.00;99.90
582;DHT22;277;50.074;8.436;2022-11-27T00:34:22;8.90;99.90
582;DHT22;277;50.074;8.436;2022-11-27T00:36:50;8.70;99.90
582;DHT22;277;50.074;8.436;2022-11-27T00:39:19;8.40;99.90
582;DHT22;277;50.074;8.436;2022-11-27T00:41:47;8.20;99.90
582;DHT22;277;50.074;8.436;2022-11-27T00:44:15;8.30;99.90
582;DHT22;277;50.074;8.436;2022-11-27T00:46:42;8.50;99.90
582;DHT22;277;50.074;8.436;2022-11-27T00:49:11;8.50;99.90
582;DHT22;277;50.074;8.436;2022-11-27T00:51:39;8.30;99.90
582;DHT22;277;50.074;8.436;2022-11-27T00:54:08;8.10;99.90
582;DHT22;277;50.074;8.436;2022-11-27T00:56:37;8.00;99.90
582;DHT22;277;50.074;8.436;2022-11-27T00:59:05;8.10;99.90
582;DHT22;277;50.074;8.436;2022-11-27T01:01:35;8.30;99.90
582;DHT22;277;50.074;8.436;2022-11-27T01:04:03;8.40;99.90
582;DHT22;277;50.074;8.436;2022-11-27T01:06:32;8.60;99.90
582;DHT22;277;50.074;8.436;2022-11-27T01:08:59;8.70;99.90
582;DHT22;277;50.074;8.436;2022-11-27T01:11:29;8.70;99.90
582;DHT22;277;50.074;8.436;2022-11-27T01:13:59;8.70;99.90
582;DHT22;277;50.074;8.436;2022-11-27T01:16:27;8.80;99.90
582;DHT22;277;50.074;8.436;2022-11-27T01:18:56;8.80;99.90
582;DHT22;277;50.074;8.436;2022-11-27T01:21:25;8.80;99.90
582;DHT22;277;50.074;8.436;2022-11-27T01:23:53;8.90;99.90
582;DHT22;277;50.074;8.436;2022-11-27T01:26:21;8.90;99.90
582;DHT22;277;50.074;8.436;2022-11-27T01:28:50;8.80;99.90
582;DHT22;277;50.074;8.436;2022-11-27T01:31:20;9.00;99.90
582;DHT22;277;50.074;8.436;2022-11-27T01:33:50;9.00;99.90
582;DHT22;277;50.074;8.436;2022-11-27T01:36:18;9.10;99.90
582;DHT22;277;50.074;8.436;2022-11-27T01:38:46;9.00;99.90
582;DHT22;277;50.074;8.436;2022-11-27T01:41:15;9.10;99.90
582;DHT22;277;50.074;8.436;2022-11-27T01:43:44;9.10;99.90
582;DHT22;277;50.074;8.436;2022-11-27T01:46:25;9.10;99.90
582;DHT22;277;50.074;8.436;2022-11-27T01:48:55;9.20;99.90
582;DHT22;277;50.074;8.436;2022-11-27T01:51:24;9.20;99.90
582;DHT22;277;50.074;8.436;2022-11-27T01:53:52;9.20;99.90
582;DHT22;277;50.074;8.436;2022-11-27T01:56:20;9.30;99.90
582;DHT22;277;50.074;8.436;2022-11-27T01:58:48;9.30;99.90
582;DHT22;277;50.074;8.436;2022-11-27T02:01:17;9.30;99.90
582;DHT22;277;50.074;8.436;2022-11-27T02:03:46;9.20;99.90
582;DHT22;277;50.074;8.436;2022-11-27T02:06:13;9.30;99.90
582;DHT22;277;50.074;8.436;2022-11-27T02:08:41;9.20;99.90
582;DHT22;277;50.074;8.436;2022-11-27T02:11:11;9.30;99.90
582;DHT22;277;50.074;8.436;2022-11-27T02:13:41;9.30;99.90
582;DHT22;277;50.074;8.436;2022-11-27T02:16:11;9.30;99.90
582;DHT22;277;50.074;8.436;2022-11-27T02:18:47;9.20;99.90
582;DHT22;277;50.074;8.436;2022-11-27T02:21:19;9.20;99.90
582;DHT22;277;50.074;8.436;2022-11-27T02:26:39;8.90;99.90
582;DHT22;277;50.074;8.436;2022-11-27T02:29:12;8.70;99.90
582;DHT22;277;50.074;8.436;2022-11-27T02:31:41;8.70;99.90
582;DHT22;277;50.074;8.436;2022-11-27T02:34:14;8.70;99.90
582;DHT22;277;50.074;8.436;2022-11-27T02:36:46;8.50;99.90
582;DHT22;277;50.074;8.436;2022-11-27T02:39:16;8.60;99.90
582;DHT22;277;50.074;8.436;2022-11-27T02:41:45;8.60;99.90
582;DHT22;277;50.074;8.436;2022-11-27T02:44:16;8.70;99.90
582;DHT22;277;50.074;8.436;2022-11-27T02:46:44;8.70;99.90
582;DHT22;277;50.074;8.436;2022-11-27T02:49:13;8.70;99.90
582;DHT22;277;50.074;8.436;2022-11-27T02:51:43;8.70;99.90
582;DHT22;277;50.074;8.436;2022-11-27T02:54:13;8.70;99.90
582;DHT22;277;50.074;8.436;2022-11-27T02:56:42;8.70;99.90
582;DHT22;277;50.074;8.436;2022-11-27T02:59:11;8.60;99.90
582;DHT22;277;50.074;8.436;2022-11-27T03:01:42;8.60;99.90
582;DHT22;277;50.074;8.436;2022-11-27T03:04:12;8.60;99.90
582;DHT22;277;50.074;8.436;2022-11-27T03:06:41;8.50;99.90
582;DHT22;277;50.074;8.436;2022-11-27T03:09:12;8.50;99.90
582;DHT22;277;50.074;8.436;2022-11-27T03:11:41;8.60;99.90
582;DHT22;277;50.074;8.436;2022-11-27T03:14:09;8.70;99.90
582;DHT22;277;50.074;8.436;2022-11-27T03:16:39;8.70;99.90
582;DHT22;277;50.074;8.436;2022-11-27T03:19:14;8.60;99.90
582;DHT22;277;50.074;8.436;2022-11-27T03:21:44;8.70;99.90
582;DHT22;277;50.074;8.436;2022-11-27T03:24:13;8.70;99.90
582;DHT22;277;50.074;8.436;2022-11-27T03:26:41;8.70;99.90
582;DHT22;277;50.074;8.436;2022-11-27T03:29:09;8.60;99.90
582;DHT22;277;50.074;8.436;2022-11-27T03:31:38;8.50;99.90
582;DHT22;277;50.074;8.436;2022-11-27T03:34:07;8.30;99.90
582;DHT22;277;50.074;8.436;2022-11-27T03:36:36;8.20;99.90
582;DHT22;277;50.074;8.436;2022-11-27T03:39:04;8.20;99.90
582;DHT22;277;50.074;8.436;2022-11-27T03:41:34;8.10;99.90
582;DHT22;277;50.074;8.436;2022-11-27T03:44:06;8.00;99.90
582;DHT22;277;50.074;8.436;2022-11-27T03:46:39;7.80;99.90
582;DHT22;277;50.074;8.436;2022-11-27T03:49:13;7.80;99.90
582;DHT22;277;50.074;8.436;2022-11-27T03:51:46;7.70;99.90
582;DHT22;277;50.074;8.436;2022-11-27T03:54:18;7.70;99.90
582;DHT22;277;50.074;8.436;2022-11-27T03:56:54;7.60;99.90
582;DHT22;277;50.074;8.436;2022-11-27T03:59:24;7.40;99.90
582;DHT22;277;50.074;8.436;2022-11-27T04:01:52;7.20;99.90
582;DHT22;277;50.074;8.436;2022-11-27T04:04:20;7.10;99.90
582;DHT22;277;50.074;8.436;2022-11-27T04:06:49;7.00;99.90
582;DHT22;277;50.074;8.436;2022-11-27T04:09:17;7.20;99.90
582;DHT22;277;50.074;8.436;2022-11-27T04:11:45;7.00;99.90
582;DHT22;277;50.074;8.436;2022-11-27T04:14:12;7.10;99.90
582;DHT22;277;50.074;8.436;2022-11-27T04:16:40;7.20;99.90
582;DHT22;277;50.074;8.436;2022-11-27T04:19:08;7.20;99.90
582;DHT22;277;50.074;8.436;2022-11-27T04:21:36;7.30;99.90
582;DHT22;277;50.074;8.436;2022-11-27T04:24:05;7.30;99.90
582;DHT22;277;50.074;8.436;2022-11-27T04:26:33;7.30;99.90
582;DHT22;277;50.074;8.436;2022-11-27T04:29:06;7.40;99.90
582;DHT22;277;50.074;8.436;2022-11-27T04:31:34;7.40;99.90
582;DHT22;277;50.074;8.436;2022-11-27T04:34:02;7.40;99.90
582;DHT22;277;50.074;8.436;2022-11-27T04:36:29;7.40;99.90
582;DHT22;277;50.074;8.436;2022-11-27T04:39:05;7.50;99.90
582;DHT22;277;50.074;8.436;2022-11-27T04:41:33;7.40;99.90
582;DHT22;277;50.074;8.436;2022-11-27T04:44:01;7.40;99.90
582;DHT22;277;50.074;8.436;2022-11-27T04:46:29;7.40;99.90
582;DHT22;277;50.074;8.436;2022-11-27T04:48:56;7.40;99.90
582;DHT22;277;50.074;8.436;2022-11-27T04:51:24;7.30;99.90
582;DHT22;277;50.074;8.436;2022-11-27T04:53:52;7.30;99.90
582;DHT22;277;50.074;8.436;2022-11-27T04:56:21;7.20;99.90
582;DHT22;277;50.074;8.436;2022-11-27T04:58:49;6.90;99.90
582;DHT22;277;50.074;8.436;2022-11-27T05:01:16;6.90;99.90
582;DHT22;277;50.074;8.436;2022-11-27T05:03:45;6.70;99.90
582;DHT22;277;50.074;8.436;2022-11-27T05:06:13;6.70;99.90
582;DHT22;277;50.074;8.436;2022-11-27T05:08:40;6.80;99.90
582;DHT22;277;50.074;8.436;2022-11-27T05:11:09;6.60;99.90
582;DHT22;277;50.074;8.436;2022-11-27T05:13:39;6.40;99.90
582;DHT22;277;50.074;8.436;2022-11-27T05:16:06;6.40;99.90
582;DHT22;277;50.074;8.436;2022-11-27T05:18:34;6.40;99.90
582;DHT22;277;50.074;8.436;2022-11-27T05:21:03;6.40;99.90
582;DHT22;277;50.074;8.436;2022-11-27T05:23:31;6.20;99.90
582;DHT22;277;50.074;8.436;2022-11-27T05:25:59;6.20;99.90
582;DHT22;277;50.074;8.436;2022-11-27T05:28:28;6.20;99.90
582;DHT22;277;50.074;8.436;2022-11-27T05:30:57;6.30;99.90
582;DHT22;277;50.074;8.436;2022-11-27T05:33:25;6.30;99.90
582;DHT22;277;50.074;8.436;2022-11-27T05:35:53;6.10;99.90
582;DHT22;277;50.074;8.436;2022-11-27T05:38:21;6.00;99.90
582;DHT22;277;50.074;8.436;2022-11-27T05:40:49;6.00;99.90
582;DHT22;277;50.074;8.436;2022-11-27T05:43:16;6.10;99.90
582;DHT22;277;50.074;8.436;2022-11-27T05:45:44;6.00;99.90
582;DHT22;277;50.074;8.436;2022-11-27T05:48:13;6.00;99.90
582;DHT22;277;50.074;8.436;2022-11-27T05:50:41;6.20;99.90
582;DHT22;277;50.074;8.436;2022-11-27T05:53:08;6.20;99.90
582;DHT22;277;50.074;8.436;2022-11-27T05:55:36;6.20;99.90
582;DHT22;277;50.074;8.436;2022-11-27T05:58:04;6.30;99.90
582;DHT22;277;50.074;8.436;2022-11-27T06:00:31;6.20;99.90
582;DHT22;277;50.074;8.436;2022-11-27T06:02:59;6.10;99.90
582;DHT22;277;50.074;8.436;2022-11-27T06:05:28;6.00;99.90
582;DHT22;277;50.074;8.436;2022-11-27T06:07:56;6.10;99.90
582;DHT22;277;50.074;8.436;2022-11-27T06:10:24;6.20;99.90
582;DHT22;277;50.074;8.436;2022-11-27T06:12:52;6.20;99.90
582;DHT22;277;50.074;8.436;2022-11-27T06:15:20;6.30;99.90
582;DHT22;277;50.074;8.436;2022-11-27T06:17:48;6.30;99.90
582;DHT22;277;50.074;8.436;2022-11-27T06:20:16;6.40;99.90
582;DHT22;277;50.074;8.436;2022-11-27T06:22:47;6.40;99.90
582;DHT22;277;50.074;8.436;2022-11-27T06:25:14;6.50;99.90
582;DHT22;277;50.074;8.436;2022-11-27T06:27:42;6.60;99.90
582;DHT22;277;50.074;8.436;2022-11-27T06:30:10;6.70;99.90
582;DHT22;277;50.074;8.436;2022-11-27T06:32:38;6.80;99.90
582;DHT22;277;50.074;8.436;2022-11-27T06:35:06;6.90;99.90
582;DHT22;277;50.074;8.436;2022-11-27T06:37:34;6.90;99.90
582;DHT22;277;50.074;8.436;2022-11-27T06:40:04;6.90;99.90
582;DHT22;277;50.074;8.436;2022-11-27T06:42:32;6.90;99.90
582;DHT22;277;50.074;8.436;2022-11-27T06:45:00;6.90;99.90
582;DHT22;277;50.074;8.436;2022-11-27T06:47:27;6.90;99.90
582;DHT22;277;50.074;8.436;2022-11-27T06:49:55;7.00;99.90
582;DHT22;277;50.074;8.436;2022-11-27T06:52:23;7.00;99.90
582;DHT22;277;50.074;8.436;2022-11-27T06:54:51;7.00;99.90
582;DHT22;277;50.074;8.436;2022-11-27T06:57:20;7.00;99.90
582;DHT22;277;50.074;8.436;2022-11-27T06:59:48;6.80;99.90
582;DHT22;277;50.074;8.436;2022-11-27T07:02:15;6.60;99.90
582;DHT22;277;50.074;8.436;2022-11-27T07:04:43;6.50;99.90
582;DHT22;277;50.074;8.436;2022-11-27T07:07:11;6.20;99.90
582;DHT22;277;50.074;8.436;2022-11-27T07:09:39;6.00;99.90
582;DHT22;277;50.074;8.436;2022-11-27T07:12:07;5.90;99.90
582;DHT22;277;50.074;8.436;2022-11-27T07:14:36;5.90;99.90
582;DHT22;277;50.074;8.436;2022-11-27T07:17:04;5.90;99.90
582;DHT22;277;50.074;8.436;2022-11-27T07:19:32;5.80;99.90
582;DHT22;277;50.074;8.436;2022-11-27T07:22:00;5.60;99.90
582;DHT22;277;50.074;8.436;2022-11-27T07:24:27;5.50;99.90
582;DHT22;277;50.074;8.436;2022-11-27T07:26:55;5.40;99.90
582;DHT22;277;50.074;8.436;2022-11-27T07:29:23;5.30;99.90
582;DHT22;277;50.074;8.436;2022-11-27T07:31:52;5.40;99.90
582;DHT22;277;50.074;8.436;2022-11-27T07:34:20;5.30;99.90
582;DHT22;277;50.074;8.436;2022-11-27T07:36:47;5.30;99.90
582;DHT22;277;50.074;8.436;2022-11-27T07:39:15;5.10;99.90
582;DHT22;277;50.074;8.436;2022-11-27T07:42:03;5.00;99.90
582;DHT22;277;50.074;8.436;2022-11-27T07:44:51;5.00;99.90
582;DHT22;277;50.074;8.436;2022-11-27T07:47:20;5.00;99.90
582;DHT22;277;50.074;8.436;2022-11-27T07:49:47;5.00;99.90
582;DHT22;277;50.074;8.436;2022-11-27T07:52:15;5.10;99.90
582;DHT22;277;50.074;8.436;2022-11-27T07:54:43;5.10;99.90
582;DHT22;277;50.074;8.436;2022-11-27T07:57:11;5.10;99.90
582;DHT22;277;50.074;8.436;2022-11-27T07:59:38;5.10;99.90
582;DHT22;277;50.074;8.436;2022-11-27T08:02:12;5.10;99.90
582;DHT22;277;50.074;8.436;2022-11-27T08:04:42;5.10;99.90
582;DHT22;277;50.074;8.436;2022-11-27T08:07:10;5.00;99.90
582;DHT22;277;50.074;8.436;2022-11-27T08:09:38;5.00;99.90
582;DHT22;277;50.074;8.436;2022-11-27T08:12:06;5.10;99.90
582;DHT22;277;50.074;8.436;2022-11-27T08:14:34;5.10;99.90
582;DHT22;277;50.074;8.436;2022-11-27T08:17:01;5.00;99.90
582;DHT22;277;50.074;8.436;2022-11-27T08:19:29;5.00;99.90
582;DHT22;277;50.074;8.436;2022-11-27T08:21:58;5.00;99.90
582;DHT22;277;50.074;8.436;2022-11-27T08:24:26;5.00;99.90
582;DHT22;277;50.074;8.436;2022-11-27T08:26:54;5.00;99.90
582;DHT22;277;50.074;8.436;2022-11-27T08:29:22;5.00;99.90
582;DHT22;277;50.074;8.436;2022-11-27T08:31:58;5.10;99.90
582;DHT22;277;50.074;8.436;2022-11-27T08:34:25;5.00;99.90
582;DHT22;277;50.074;8.436;2022-11-27T08:36:53;5.10;99.90
582;DHT22;277;50.074;8.436;2022-11-27T08:39:22;5.20;99.90
582;DHT22;277;50.074;8.436;2022-11-27T08:41:52;5.20;99.90
582;DHT22;277;50.074;8.436;2022-11-27T08:44:19;5.20;99.90
582;DHT22;277;50.074;8.436;2022-11-27T08:46:47;5.20;99.90
582;DHT22;277;50.074;8.436;2022-11-27T08:49:15;5.30;99.90
582;DHT22;277;50.074;8.436;2022-11-27T08:51:43;5.30;99.90
582;DHT22;277;50.074;8.436;2022-11-27T08:54:11;5.40;99.90
582;DHT22;277;50.074;8.436;2022-11-27T08:56:40;5.40;99.90
582;DHT22;277;50.074;8.436;2022-11-27T08:59:07;5.50;99.90
582;DHT22;277;50.074;8.436;2022-11-27T09:01:35;5.50;99.90
582;DHT22;277;50.074;8.436;2022-11-27T09:04:03;5.50;99.90
582;DHT22;277;50.074;8.436;2022-11-27T09:06:31;5.60;99.90
582;DHT22;277;50.074;8.436;2022-11-27T09:09:01;5.60;99.90
582;DHT22;277;50.074;8.436;2022-11-27T09:11:29;5.50;99.90
582;DHT22;277;50.074;8.436;2022-11-27T09:13:58;5.60;99.90
582;DHT22;277;50.074;8.436;2022-11-27T09:16:26;5.60;99.90
582;DHT22;277;50.074;8.436;2022-11-27T09:18:56;5.50;99.90
582;DHT22;277;50.074;8.436;2022-11-27T09:21:24;5.50;99.90
582;DHT22;277;50.074;8.436;2022-11-27T09:23:53;5.50;99.90
582;DHT22;277;50.074;8.436;2022-11-27T09:26:21;5.50;99.90
582;DHT22;277;50.074;8.436;2022-11-27T09:28:51;5.60;99.90
582;DHT22;277;50.074;8.436;2022-11-27T09:31:21;5.50;99.90
582;DHT22;277;50.074;8.436;2022-11-27T09:33:49;5.60;99.90
582;DHT22;277;50.074;8.436;2022-11-27T09:36:17;5.50;99.90
582;DHT22;277;50.074;8.436;2022-11-27T09:38:45;5.50;99.90
582;DHT22;277;50.074;8.436;2022-11-27T09:41:21;5.50;99.90
582;DHT22;277;50.074;8.436;2022-11-27T09:43:53;5.40;99.90
582;DHT22;277;50.074;8.436;2022-11-27T09:46:25;5.40;99.90
582;DHT22;277;50.074;8.436;2022-11-27T09:48:55;5.30;99.90
582;DHT22;277;50.074;8.436;2022-11-27T09:51:24;5.20;99.90
582;DHT22;277;50.074;8.436;2022-11-27T09:53:55;5.30;99.90
582;DHT22;277;50.074;8.436;2022-11-27T09:56:24;5.40;99.90
582;DHT22;277;50.074;8.436;2022-11-27T09:58:55;5.40;99.90
582;DHT22;277;50.074;8.436;2022-11-27T10:01:25;5.50;99.90
582;DHT22;277;50.074;8.436;2022-11-27T10:04:03;5.60;99.90
582;DHT22;277;50.074;8.436;2022-11-27T10:06:33;5.60;99.90
582;DHT22;277;50.074;8.436;2022-11-27T10:09:06;5.60;99.90
582;DHT22;277;50.074;8.436;2022-11-27T10:11:40;5.50;99.90
582;DHT22;277;50.074;8.436;2022-11-27T10:14:16;5.70;99.90
582;DHT22;277;50.074;8.436;2022-11-27T10:16:47;5.70;99.90
582;DHT22;277;50.074;8.436;2022-11-27T10:19:20;5.80;99.90
582;DHT22;277;50.074;8.436;2022-11-27T10:21:54;5.90;99.90
582;DHT22;277;50.074;8.436;2022-11-27T10:24:26;6.20;99.90
582;DHT22;277;50.074;8.436;2022-11-27T10:26:57;6.30;99.90
582;DHT22;277;50.074;8.436;2022-11-27T10:29:31;6.70;99.90
582;DHT22;277;50.074;8.436;2022-11-27T10:32:04;7.00;99.90
582;DHT22;277;50.074;8.436;2022-11-27T10:34:33;7.30;99.90
582;DHT22;277;50.074;8.436;2022-11-27T10:37:05;7.50;99.90
582;DHT22;277;50.074;8.436;2022-11-27T10:39:35;7.60;99.90
582;DHT22;277;50.074;8.436;2022-11-27T10:42:08;7.90;99.90
582;DHT22;277;50.074;8.436;2022-11-27T10:44:37;8.00;99.90
582;DHT22;277;50.074;8.436;2022-11-27T10:47:09;8.00;99.90
582;DHT22;277;50.074;8.436;2022-11-27T10:49:39;7.80;99.90
582;DHT22;277;50.074;8.436;2022-11-27T10:52:09;7.70;99.90
582;DHT22;277;50.074;8.436;2022-11-27T10:54:38;7.70;99.90
582;DHT22;277;50.074;8.436;2022-11-27T10:59:56;7.50;99.90
582;DHT22;277;50.074;8.436;2022-11-27T11:02:30;7.40;99.90
582;DHT22;277;50.074;8.436;2022-11-27T11:05:08;7.20;99.90
582;DHT22;277;50.074;8.436;2022-11-27T11:07:57;7.10;99.90
582;DHT22;277;50.074;8.436;2022-11-27T11:10:29;7.00;99.90
582;DHT22;277;50.074;8.436;2022-11-27T11:13:14;6.90;99.90
582;DHT22;277;50.074;8.436;2022-11-27T11:15:47;6.90;99.90
582;DHT22;277;50.074;8.436;2022-11-27T11:18:19;6.90;99.90
582;DHT22;277;50.074;8.436;2022-11-27T11:20:47;6.90;99.90
582;DHT22;277;50.074;8.436;2022-11-27T11:23:21;6.90;99.90
582;DHT22;277;50.074;8.436;2022-11-27T11:25:49;6.90;99.90
582;DHT22;277;50.074;8.436;2022-11-27T11:28:18;7.00;99.90
582;DHT22;277;50.074;8.436;2022-11-27T11:30:57;7.10;99.90
582;DHT22;277;50.074;8.436;2022-11-27T11:33:27;7.10;99.90
582;DHT22;277;50.074;8.436;2022-11-27T11:35:57;7.20;99.90
582;DHT22;277;50.074;8.436;2022-11-27T11:38:27;7.50;99.90
582;DHT22;277;50.074;8.436;2022-11-27T11:40:57;7.70;99.90
582;DHT22;277;50.074;8.436;2022-11-27T11:43:26;8.10;99.90
582;DHT22;277;50.074;8.436;2022-11-27T11:46:02;8.90;99.90
582;DHT22;277;50.074;8.436;2022-11-27T11:48:31;9.60;99.90
582;DHT22;277;50.074;8.436;2022-11-27T11:51:00;10.20;99.90
582;DHT22;277;50.074;8.436;2022-11-27T11:53:30;10.40;99.90
582;DHT22;277;50.074;8.436;2022-11-27T11:56:01;10.30;99.90
582;DHT22;277;50.074;8.436;2022-11-27T11:58:33;10.00;99.90
582;DHT22;277;50.074;8.436;2022-11-27T12:01:06;9.60;99.90
582;DHT22;277;50.074;8.436;2022-11-27T12:04:01;9.60;99.90
582;DHT22;277;50.074;8.436;2022-11-27T12:06:35;9.80;99.90
582;DHT22;277;50.074;8.436;2022-11-27T12:09:09;9.80;99.90
582;DHT22;277;50.074;8.436;2022-11-27T12:11:42;9.80;99.90
582;DHT22;277;50.074;8.436;2022-11-27T12:14:16;9.70;99.90
582;DHT22;277;50.074;8.436;2022-11-27T12:16:49;9.70;99.90
582;DHT22;277;50.074;8.436;2022-11-27T12:19:34;9.80;99.90
582;DHT22;277;50.074;8.436;2022-11-27T12:22:09;9.70;99.90
582;DHT22;277;50.074;8.436;2022-11-27T12:24:41;9.80;99.90
582;DHT22;277;50.074;8.436;2022-11-27T12:27:15;9.70;99.90
582;DHT22;277;50.074;8.436;2022-11-27T12:29:51;9.40;99.90
582;DHT22;277;50.074;8.436;2022-11-27T12:32:29;9.20;99.90
582;DHT22;277;50.074;8.436;2022-11-27T12:35:05;9.20;99.90
582;DHT22;277;50.074;8.436;2022-11-27T12:37:42;9.20;99.90
582;DHT22;277;50.074;8.436;2022-11-27T12:40:19;9.30;99.90
582;DHT22;277;50.074;8.436;2022-11-27T12:42:50;9.30;99.90
582;DHT22;277;50.074;8.436;2022-11-27T12:45:20;9.20;99.90
582;DHT22;277;50.074;8.436;2022-11-27T12:47:50;9.20;99.90
582;DHT22;277;50.074;8.436;2022-11-27T12:50:21;9.10;99.90
582;DHT22;277;50.074;8.436;2022-11-27T12:52:54;9.00;99.90
582;DHT22;277;50.074;8.436;2022-11-27T12:55:25;9.00;99.90
582;DHT22;277;50.074;8.436;2022-11-27T12:57:55;9.00;99.90
582;DHT22;277;50.074;8.436;2022-11-27T13:00:25;9.00;99.90
582;DHT22;277;50.074;8.436;2022-11-27T13:02:58;9.00;99.90
582;DHT22;277;50.074;8.436;2022-11-27T13:05:31;9.00;99.90
582;DHT22;277;50.074;8.436;2022-11-27T13:08:00;9.00;99.90
582;DHT22;277;50.074;8.436;2022-11-27T13:10:30;9.10;99.90
582;DHT22;277;50.074;8.436;2022-11-27T13:13:01;9.00;99.90
582;DHT22;277;50.074;8.436;2022-11-27T13:15:32;9.00;99.90
582;DHT22;277;50.074;8.436;2022-11-27T13:18:02;9.00;99.90
582;DHT22;277;50.074;8.436;2022-11-27T13:20:33;8.90;99.90
582;DHT22;277;50.074;8.436;2022-11-27T13:23:02;8.80;99.90
582;DHT22;277;50.074;8.436;2022-11-27T13:25:30;8.90;99.90
582;DHT22;277;50.074;8.436;2022-11-27T13:27:59;8.80;99.90
582;DHT22;277;50.074;8.436;2022-11-27T13:30:30;8.70;99.90
582;DHT22;277;50.074;8.436;2022-11-27T13:32:59;8.70;99.90
582;DHT22;277;50.074;8.436;2022-11-27T13:35:28;8.70;99.90
582;DHT22;277;50.074;8.436;2022-11-27T13:38:02;8.80;99.90
582;DHT22;277;50.074;8.436;2022-11-27T13:40:34;8.80;99.90
582;DHT22;277;50.074;8.436;2022-11-27T13:43:04;8.80;99.90
582;DHT22;277;50.074;8.436;2022-11-27T13:45:32;8.80;99.90
582;DHT22;277;50.074;8.436;2022-11-27T13:48:01;8.80;99.90
582;DHT22;277;50.074;8.436;2022-11-27T13:50:30;8.70;99.90
582;DHT22;277;50.074;8.436;2022-11-27T13:53:10;8.60;99.90
582;DHT22;277;50.074;8.436;2022-11-27T13:55:39;8.60;99.90
582;DHT22;277;50.074;8.436;2022-11-27T13:58:07;8.70;99.90
582;DHT22;277;50.074;8.436;2022-11-27T14:00:35;8.70;99.90
582;DHT22;277;50.074;8.436;2022-11-27T14:03:03;8.80;99.90
582;DHT22;277;50.074;8.436;2022-11-27T14:05:35;8.70;99.90
582;DHT22;277;50.074;8.436;2022-11-27T14:08:13;8.70;99.90
582;DHT22;277;50.074;8.436;2022-11-27T14:10:48;8.50;99.90
582;DHT22;277;50.074;8.436;2022-11-27T14:13:17;8.40;99.90
582;DHT22;277;50.074;8.436;2022-11-27T14:15:56;8.20;99.90
582;DHT22;277;50.074;8.436;2022-11-27T14:18:27;8.20;99.90
582;DHT22;277;50.074;8.436;2022-11-27T14:20:56;8.10;99.90
582;DHT22;277;50.074;8.436;2022-11-27T14:23:26;8.00;99.90
582;DHT22;277;50.074;8.436;2022-11-27T14:26:06;8.10;99.90
582;DHT22;277;50.074;8.436;2022-11-27T14:28:41;8.00;99.90
582;DHT22;277;50.074;8.436;2022-11-27T14:31:17;8.00;99.90
582;DHT22;277;50.074;8.436;2022-11-27T14:33:48;8.00;99.90
582;DHT22;277;50.074;8.436;2022-11-27T14:36:36;8.00;99.90
582;DHT22;277;50.074;8.436;2022-11-27T14:39:03;8.00;99.90
582;DHT22;277;50.074;8.436;2022-11-27T14:41:32;7.90;99.90
582;DHT22;277;50.074;8.436;2022-11-27T14:44:00;7.80;99.90
582;DHT22;277;50.074;8.436;2022-11-27T14:46:29;7.80;99.90
582;DHT22;277;50.074;8.436;2022-11-27T14:48:57;7.90;99.90
582;DHT22;277;50.074;8.436;2022-11-27T14:51:26;7.90;99.90
582;DHT22;277;50.074;8.436;2022-11-27T14:53:57;7.90;99.90
582;DHT22;277;50.074;8.436;2022-11-27T14:56:25;7.90;99.90
582;DHT22;277;50.074;8.436;2022-11-27T14:58:55;8.00;99.90
582;DHT22;277;50.074;8.436;2022-11-27T15:01:24;8.00;99.90
582;DHT22;277;50.074;8.436;2022-11-27T15:03:55;8.00;99.90
582;DHT22;277;50.074;8.436;2022-11-27T15:06:23;8.00;99.90
582;DHT22;277;50.074;8.436;2022-11-27T15:08:51;7.90;99.90
582;DHT22;277;50.074;8.436;2022-11-27T15:11:40;7.70;99.90
582;DHT22;277;50.074;8.436;2022-11-27T15:14:23;7.70;99.90
582;DHT22;277;50.074;8.436;2022-11-27T15:16:51;7.60;99.90
582;DHT22;277;50.074;8.436;2022-11-27T15:19:22;7.60;99.90
582;DHT22;277;50.074;8.436;2022-11-27T15:21:52;7.60;99.90
582;DHT22;277;50.074;8.436;2022-11-27T15:24:27;7.60;99.90
582;DHT22;277;50.074;8.436;2022-11-27T15:27:05;7.50;99.90
582;DHT22;277;50.074;8.436;2022-11-27T15:29:35;7.50;99.90
582;DHT22;277;50.074;8.436;2022-11-27T15:32:13;7.60;99.90
582;DHT22;277;50.074;8.436;2022-11-27T15:34:48;7.50;99.90
582;DHT22;277;50.074;8.436;2022-11-27T15:40:13;7.40;99.90
582;DHT22;277;50.074;8.436;2022-11-27T15:42:42;7.40;99.90
582;DHT22;277;50.074;8.436;2022-11-27T15:45:13;7.50;99.90
582;DHT22;277;50.074;8.436;2022-11-27T15:47:41;7.50;99.90
582;DHT22;277;50.074;8.436;2022-11-27T15:50:11;7.40;99.90
582;DHT22;277;50.074;8.436;2022-11-27T15:52:40;7.50;99.90
582;DHT22;277;50.074;8.436;2022-11-27T15:55:11;7.50;99.90
582;DHT22;277;50.074;8.436;2022-11-27T15:57:40;7.50;99.90
582;DHT22;277;50.074;8.436;2022-11-27T16:00:08;7.60;99.90
582;DHT22;277;50.074;8.436;2022-11-27T16:02:38;7.60;99.90
582;DHT22;277;50.074;8.436;2022-11-27T16:05:06;7.60;99.90
582;DHT22;277;50.074;8.436;2022-11-27T16:07:34;7.60;99.90
582;DHT22;277;50.074;8.436;2022-11-27T16:10:02;7.60;99.90
582;DHT22;277;50.074;8.436;2022-11-27T16:12:30;7.70;99.90
582;DHT22;277;50.074;8.436;2022-11-27T16:14:57;7.70;99.90
582;DHT22;277;50.074;8.436;2022-11-27T16:17:25;7.70;99.90
582;DHT22;277;50.074;8.436;2022-11-27T16:19:54;7.60;99.90
582;DHT22;277;50.074;8.436;2022-11-27T16:22:22;7.60;99.90
582;DHT22;277;50.074;8.436;2022-11-27T16:24:50;7.60;99.90
582;DHT22;277;50.074;8.436;2022-11-27T16:27:18;7.70;99.90
582;DHT22;277;50.074;8.436;2022-11-27T16:29:45;7.70;99.90
582;DHT22;277;50.074;8.436;2022-11-27T16:32:13;7.70;99.90
582;DHT22;277;50.074;8.436;2022-11-27T16:34:41;7.60;99.90
582;DHT22;277;50.074;8.436;2022-11-27T16:37:10;7.60;99.90
582;DHT22;277;50.074;8.436;2022-11-27T16:39:43;7.60;99.90
582;DHT22;277;50.074;8.436;2022-11-27T16:42:11;7.60;99.90
582;DHT22;277;50.074;8.436;2022-11-27T16:44:39;7.60;99.90
582;DHT22;277;50.074;8.436;2022-11-27T16:47:08;7.60;99.90
582;DHT22;277;50.074;8.436;2022-11-27T16:49:36;7.70;99.90
582;DHT22;277;50.074;8.436;2022-11-27T16:52:04;7.70;99.90
582;DHT22;277;50.074;8.436;2022-11-27T16:54:33;7.60;99.90
582;DHT22;277;50.074;8.436;2022-11-27T16:57:00;7.60;99.90
582;DHT22;277;50.074;8.436;2022-11-27T16:59:28;7.60;99.90
582;DHT22;277;50.074;8.436;2022-11-27T17:01:56;7.60;99.90
582;DHT22;277;50.074;8.436;2022-11-27T17:04:24;7.60;99.90
582;DHT22;277;50.074;8.436;2022-11-27T17:06:52;7.70;99.90
582;DHT22;277;50.074;8.436;2022-11-27T17:09:20;7.70;99.90
582;DHT22;277;50.074;8.436;2022-11-27T17:11:51;7.70;99.90
582;DHT22;277;50.074;8.436;2022-11-27T17:14:19;7.70;99.90
582;DHT22;277;50.074;8.436;2022-11-27T17:16:46;7.70;99.90
582;DHT22;277;50.074;8.436;2022-11-27T17:19:14;7.70;99.90